Terminal Aerodrome Forecast
Issued by NWS

Home | Current Version | Previous Version | Text Only | Print | Product List | Glossary On
Versions: 1 2 3 4 5 6 7 8 9 10 11 12 13
204
FTUS42 KMLB 172329
TAFSFB
TAF
KSFB 172329Z 1800/1824 30014KT P6SM SCT045
     FM180100 31013KT P6SM SKC
     FM181200 35010KT P6SM SKC=

USA.gov is the U.S. government's official web portal to all federal, state and local government web resources and services.